CheckWX is a tool to help pilots better visualize weather data.  It is not intended as a substitute for an official pre-flight weather briefing.

14:09:20 UTC

KLEW METAR
Auburn / Lewiston Municipal Airport
Auburn/Lewiston, Maine, USA
Current

13 mins ago

KLEW 251356Z AUTO 05006KT 10SM 08/03 A2995 RMK AO2 SLP160 T00780028 $
Observed
Apr-25 @ 13:56 UTC
Wind
  • 050° at 6 KTS
Visibility
10 SM
Temperature
C / 46°F
Dewpoint
C / 37°F
Humidity
71%
Altimeter
29.95" Hg
Pressure
1014.22 hPa
Previous

1 hour ago

KLEW 251256Z AUTO 06006KT 10SM 08/03 A2995 RMK AO2 SLP158 T00780028 $
Observed
Apr-25 @ 12:56 UTC
Wind
  • 060° at 6 KTS
Visibility
10 SM
Temperature
C / 46°F
Dewpoint
C / 37°F
Humidity
71%
Altimeter
29.95" Hg
Pressure
1014.22 hPa
Previous

2 hours ago

KLEW 251156Z AUTO 34003KT 10SM 06/02 A2994 RMK AO2 SLP154 T00610022 10061 21006 53018 $
Observed
Apr-25 @ 11:56 UTC
Wind
  • 340° at 3 KTS
Visibility
10 SM
Temperature
C / 43°F
Dewpoint
C / 36°F
Humidity
76%
Altimeter
29.94" Hg
Pressure
1013.92 hPa